Nikolo-Poloma, Russia
Current Conditions -  °F | °C
As of 10:30 PM on Thursday 29 Jan 2015 (Local Time) from UUDL Reporting Station
Overcast Overcast  
Wind Chill: 19°   Ceiling: 1200
Heat Index: 27°   Visibility: 6mi
Dew Point: 21°   Wind: 7mph
Humidity: 80%   Direction: 170°S
Pressure: 29.74"   Gusts: NA
Location:  58.33°N, 43.4°E
Report Text: UUDL 291930Z 17003MPS 130V200 9999 OVC012 M03/M06 Q1007 NOSIGRMK QFE747 23490250
Loading
Personal Weather Stations






























Interactive Weather Map New forecast layout! Learn more

10-Day Weather Forecast

Advertisements
Track Severe Weather on mobile